Time;durP1;ratioP1;P1;durP2;ratioP2;P2;SDS_P1;SDS_P2;PMS_P1;PMS_P2;Temp;Humidity;BMP_temperature;BMP_pressure;BME280_temperature;BME280_humidity;BME280_pressure;Samples;Min_cycle;Max_cycle;Signal;HPM_P1;HPM_P2
2023/05/12 00:00:08;;;;;;;25.98;13.77;;;;;;;9.71;100.00;95960.00;5089861;28;20068;-73
2023/05/12 00:02:34;;;;;;;22.85;13.82;;;;;;;9.70;100.00;95961.09;5089582;28;20040;-72
2023/05/12 00:05:03;;;;;;;20.00;12.45;;;;;;;9.74;100.00;95955.81;5087806;28;20048;-72
2023/05/12 00:07:29;;;;;;;23.42;13.38;;;;;;;9.77;100.00;95960.63;5089529;28;20503;-72
2023/05/12 00:09:55;;;;;;;20.95;12.30;;;;;;;9.80;100.00;95955.34;5088292;28;20047;-72
2023/05/12 00:12:22;;;;;;;24.08;12.77;;;;;;;9.85;100.00;95957.88;5089438;27;20679;-73
2023/05/12 00:14:48;;;;;;;22.23;12.75;;;;;;;9.85;100.00;95954.38;5089751;28;20491;-72
2023/05/12 00:17:15;;;;;;;22.73;13.02;;;;;;;9.87;100.00;95954.84;5086534;28;20052;-73
2023/05/12 00:19:42;;;;;;;21.35;11.75;;;;;;;9.79;100.00;95958.38;5085301;28;20055;-72
2023/05/12 00:22:11;;;;;;;19.80;11.13;;;;;;;9.62;100.00;95949.13;5087064;28;20810;-72
2023/05/12 00:24:38;;;;;;;17.27;10.27;;;;;;;9.65;100.00;95953.09;5089447;28;20101;-72
2023/05/12 00:27:05;;;;;;;18.65;9.98;;;;;;;9.70;100.00;95952.16;5088091;28;20083;-73
2023/05/12 00:29:32;;;;;;;17.60;10.45;;;;;;;9.73;100.00;95955.03;5088777;28;20487;-72
2023/05/12 00:31:58;;;;;;;17.27;10.30;;;;;;;9.74;100.00;95955.81;5089241;28;20066;-72
2023/05/12 00:34:25;;;;;;;18.00;10.45;;;;;;;9.75;100.00;95952.78;5088425;28;20499;-72
2023/05/12 00:36:52;;;;;;;19.20;10.63;;;;;;;9.71;100.00;95951.03;5089161;28;20040;-72
2023/05/12 00:39:19;;;;;;;17.70;10.48;;;;;;;9.66;100.00;95952.00;5088108;28;20039;-72
2023/05/12 00:41:46;;;;;;;19.65;11.32;;;;;;;9.59;100.00;95947.03;5088181;28;20256;-72
2023/05/12 00:44:13;;;;;;;22.65;12.98;;;;;;;9.36;100.00;95948.34;5087806;28;20048;-72
2023/05/12 00:46:39;;;;;;;22.95;13.27;;;;;;;9.28;100.00;95951.84;5086525;27;20040;-72
2023/05/12 00:49:07;;;;;;;21.15;11.52;;;;;;;9.36;100.00;95942.91;5088678;28;20044;-72
2023/05/12 00:51:34;;;;;;;20.20;11.18;;;;;;;9.46;100.00;95944.50;5089100;28;20070;-73
2023/05/12 00:54:00;;;;;;;18.02;10.50;;;;;;;9.52;100.00;95949.44;5089331;28;20055;-72
2023/05/12 00:56:28;;;;;;;20.67;11.23;;;;;;;9.62;100.00;95945.63;5088110;28;20038;-72
2023/05/12 00:58:55;;;;;;;19.30;11.38;;;;;;;9.61;100.00;95936.66;5089217;28;20079;-73
2023/05/12 01:01:21;;;;;;;17.90;10.68;;;;;;;9.67;100.00;95942.72;5088686;28;20055;-73
2023/05/12 01:03:48;;;;;;;20.05;11.02;;;;;;;9.71;100.00;95942.88;5086374;28;20040;-72
2023/05/12 01:06:22;;;;;;;18.70;11.18;;;;;;;9.74;100.00;95942.22;5087158;28;20051;-73
2023/05/12 01:08:48;;;;;;;20.85;11.18;;;;;;;9.75;100.00;95936.47;5088996;28;20036;-72
2023/05/12 01:11:15;;;;;;;19.17;11.18;;;;;;;9.76;100.00;95942.69;5088601;28;20127;-72
2023/05/12 01:13:42;;;;;;;19.98;12.13;;;;;;;9.78;100.00;95946.72;5088951;28;20753;-72
2023/05/12 01:16:11;;;;;;;24.02;12.25;;;;;;;9.80;100.00;95949.91;5087021;28;20048;-73
2023/05/12 01:18:38;;;;;;;21.45;11.60;;;;;;;9.84;100.00;95944.63;5088946;28;20048;-72
2023/05/12 01:21:05;;;;;;;21.75;12.05;;;;;;;9.83;100.00;95948.47;5088715;28;20044;-73
2023/05/12 01:23:37;;;;;;;17.98;11.18;;;;;;;9.82;100.00;95946.88;5088901;28;20048;-72
2023/05/12 01:26:07;;;;;;;18.58;10.57;;;;;;;9.81;100.00;95946.03;5086777;28;20055;-73
2023/05/12 01:28:35;;;;;;;17.58;10.60;;;;;;;9.80;100.00;95943.66;5088421;28;20040;-72
2023/05/12 01:31:04;;;;;;;20.20;11.77;;;;;;;9.81;100.00;95937.09;5088328;28;20415;-74
2023/05/12 01:33:32;;;;;;;18.85;10.60;;;;;;;9.80;100.00;95939.00;5088624;28;20068;-72
2023/05/12 01:35:59;;;;;;;16.92;9.88;;;;;;;9.76;100.00;95938.09;5087225;28;20498;-72
2023/05/12 01:38:25;;;;;;;15.55;9.05;;;;;;;9.76;100.00;95939.97;5088387;28;20060;-72
2023/05/12 01:40:52;;;;;;;16.33;8.85;;;;;;;9.74;100.00;95942.22;5087760;28;20050;-72
2023/05/12 01:43:20;;;;;;;15.25;9.05;;;;;;;9.66;100.00;95938.41;5088262;28;20036;-72
2023/05/12 01:45:46;;;;;;;16.73;8.50;;;;;;;9.62;100.00;95932.81;5091540;28;20048;-72
2023/05/12 01:48:13;;;;;;;13.60;8.18;;;;;;;9.59;100.00;95941.59;5092084;28;20048;-73
2023/05/12 01:50:41;;;;;;;15.90;8.85;;;;;;;9.54;100.00;95930.91;5092806;28;20060;-72
2023/05/12 01:53:09;;;;;;;14.02;7.65;;;;;;;9.57;100.00;95934.91;5091828;28;20048;-73
2023/05/12 01:55:35;;;;;;;19.02;9.25;;;;;;;9.52;100.00;95932.34;5091137;28;20067;-73
2023/05/12 01:58:02;;;;;;;16.60;8.95;;;;;;;9.51;100.00;95941.63;5092205;28;20048;-74
2023/05/12 02:00:29;;;;;;;16.85;9.63;;;;;;;9.48;100.00;95934.09;5092541;28;20043;-73
2023/05/12 02:02:56;;;;;;;15.82;9.05;;;;;;;9.49;100.00;95928.34;5091923;28;20130;-72
2023/05/12 02:05:22;;;;;;;16.30;9.65;;;;;;;9.49;100.00;95933.78;5089781;28;20044;-72
2023/05/12 02:07:49;;;;;;;15.65;9.48;;;;;;;9.49;100.00;95941.94;5092166;28;20036;-72
2023/05/12 02:10:16;;;;;;;15.02;8.60;;;;;;;9.57;100.00;95943.06;5091769;28;20055;-72
2023/05/12 02:12:43;;;;;;;17.17;9.05;;;;;;;9.62;100.00;95932.03;5091994;28;20071;-73
2023/05/12 02:15:10;;;;;;;14.65;9.05;;;;;;;9.64;100.00;95933.28;5090285;28;20117;-73
2023/05/12 02:17:37;;;;;;;13.55;8.07;;;;;;;9.66;100.00;95930.25;5092053;28;20060;-72
2023/05/12 02:20:05;;;;;;;14.18;8.05;;;;;;;9.67;100.00;95935.38;5091763;28;20063;-72
2023/05/12 02:22:31;;;;;;;13.00;7.78;;;;;;;9.69;100.00;95932.31;5092039;28;20043;-72
2023/05/12 02:24:58;;;;;;;15.20;8.82;;;;;;;9.68;100.00;95936.97;5089680;28;20495;-72
2023/05/12 02:27:24;;;;;;;14.57;8.57;;;;;;;9.71;100.00;95940.16;5091295;28;20036;-72
2023/05/12 02:29:51;;;;;;;15.20;8.90;;;;;;;9.71;100.00;95930.09;5091747;28;20055;-72
2023/05/12 02:32:17;;;;;;;14.50;8.88;;;;;;;9.72;100.00;95928.19;5089390;28;20032;-72
2023/05/12 02:34:46;;;;;;;14.23;8.80;;;;;;;9.68;100.00;95931.53;5088758;28;20069;-72
2023/05/12 02:37:12;;;;;;;15.23;8.55;;;;;;;9.68;100.00;95930.72;5091081;28;20457;-72
2023/05/12 02:39:39;;;;;;;15.82;9.40;;;;;;;9.67;100.00;95924.50;5091520;28;20051;-72
2023/05/12 02:42:06;;;;;;;14.90;9.07;;;;;;;9.70;100.00;95922.25;5090402;28;20055;-73
2023/05/12 02:44:33;;;;;;;17.40;9.82;;;;;;;9.71;100.00;95919.22;5089608;28;20052;-72
2023/05/12 02:46:59;;;;;;;17.10;9.95;;;;;;;9.68;100.00;95915.22;5091234;28;20040;-72
2023/05/12 02:49:26;;;;;;;16.20;9.07;;;;;;;9.71;100.00;95918.41;5091093;28;20044;-72
2023/05/12 02:51:54;;;;;;;17.08;9.65;;;;;;;9.76;100.00;95919.06;5090986;28;20040;-73
2023/05/12 02:54:20;;;;;;;16.15;9.93;;;;;;;9.76;100.00;95912.78;5089975;28;20491;-72
2023/05/12 02:56:47;;;;;;;14.80;9.40;;;;;;;9.78;100.00;95921.44;5091275;28;20048;-72
2023/05/12 02:59:13;;;;;;;14.65;8.95;;;;;;;9.79;100.00;95917.59;5090769;28;20063;-73
2023/05/12 03:01:40;;;;;;;19.00;10.23;;;;;;;9.76;100.00;95921.78;5089036;27;20051;-72
2023/05/12 03:04:06;;;;;;;17.33;9.93;;;;;;;9.73;100.00;95916.16;5090464;28;20055;-73
2023/05/12 03:06:33;;;;;;;21.27;11.13;;;;;;;9.68;100.00;95926.09;5089303;28;20801;-72
2023/05/12 03:09:01;;;;;;;22.83;11.27;;;;;;;9.66;100.00;95917.47;5091067;28;20044;-72
2023/05/12 03:11:27;;;;;;;19.95;11.38;;;;;;;9.67;100.00;95924.50;5090826;28;20040;-72
2023/05/12 03:13:54;;;;;;;19.95;11.52;;;;;;;9.71;100.00;95929.28;5091095;28;20052;-73
2023/05/12 03:16:20;;;;;;;17.75;10.38;;;;;;;9.74;100.00;95924.00;5088889;28;20066;-72
2023/05/12 03:18:46;;;;;;;23.25;11.95;;;;;;;9.75;100.00;95931.03;5090540;28;20043;-72
2023/05/12 03:21:13;;;;;;;16.40;9.85;;;;;;;9.77;100.00;95936.97;5090689;28;20040;-73
2023/05/12 03:23:39;;;;;;;17.58;11.23;;;;;;;9.76;100.00;95937.25;5090926;28;20055;-72
2023/05/12 03:26:07;;;;;;;22.13;11.77;;;;;;;9.78;100.00;95937.75;5088765;28;20052;-72
2023/05/12 03:28:34;;;;;;;19.80;10.65;;;;;;;9.82;100.00;95936.00;5089922;28;20435;-72
2023/05/12 03:31:00;;;;;;;21.67;11.25;;;;;;;9.84;100.00;95934.53;5090487;28;20044;-73
2023/05/12 03:33:26;;;;;;;17.77;10.60;;;;;;;9.84;100.00;95939.19;5088615;27;20032;-72
2023/05/12 03:35:53;;;;;;;21.92;12.20;;;;;;;9.82;100.00;95938.72;5090871;28;20044;-72
2023/05/12 03:38:19;;;;;;;21.35;12.73;;;;;;;9.80;100.00;95943.66;5084015;28;20067;-72
2023/05/12 03:40:51;;;;;;;21.80;12.00;;;;;;;9.85;100.00;95935.34;5090561;28;20048;-72
2023/05/12 03:43:20;;;;;;;22.73;13.27;;;;;;;9.70;100.00;95944.78;5088461;28;20400;-72
2023/05/12 03:45:46;;;;;;;21.85;12.45;;;;;;;9.71;100.00;95937.44;5090256;28;20048;-72
2023/05/12 03:48:12;;;;;;;20.45;12.13;;;;;;;9.51;100.00;95931.56;5089280;28;20713;-72
2023/05/12 03:50:39;;;;;;;22.35;11.85;;;;;;;9.51;100.00;95931.56;5090361;28;20491;-72
2023/05/12 03:53:05;;;;;;;20.42;11.95;;;;;;;9.31;100.00;95940.34;5088607;28;20217;-72
2023/05/12 03:55:32;;;;;;;18.40;11.63;;;;;;;9.41;100.00;95935.38;5089361;28;20567;-72
2023/05/12 03:57:58;;;;;;;19.23;11.35;;;;;;;9.46;100.00;95942.59;5090028;28;20097;-72
2023/05/12 04:00:26;;;;;;;17.60;10.35;;;;;;;9.51;100.00;95942.44;5089715;28;20048;-72
2023/05/12 04:02:53;;;;;;;20.90;10.98;;;;;;;9.45;100.00;95941.00;5089013;28;20139;-73
2023/05/12 04:05:19;;;;;;;19.65;11.70;;;;;;;9.38;100.00;95938.75;5088485;28;20051;-72
2023/05/12 04:07:46;;;;;;;18.60;11.63;;;;;;;9.24;100.00;95943.56;5089805;28;20040;-72
2023/05/12 04:10:12;;;;;;;18.38;11.32;;;;;;;9.33;100.00;95940.81;5089385;28;20090;-73
2023/05/12 04:12:39;;;;;;;24.25;11.90;;;;;;;9.23;100.00;95933.78;5086411;27;20495;-73
2023/05/12 04:15:06;;;;;;;16.83;11.10;;;;;;;9.34;100.00;95945.13;5088754;27;20544;-72
2023/05/12 04:17:34;;;;;;;20.75;12.68;;;;;;;9.37;100.00;95933.63;5089895;28;20055;-72
2023/05/12 04:20:01;;;;;;;19.10;11.23;;;;;;;9.29;100.00;95934.41;5089808;28;20043;-72
2023/05/12 04:22:27;;;;;;;17.40;10.38;;;;;;;9.34;100.00;95947.84;5088071;27;20394;-73
2023/05/12 04:24:54;;;;;;;19.17;11.38;;;;;;;9.30;100.00;95941.47;5089226;28;20414;-72
2023/05/12 04:27:20;;;;;;;19.45;11.43;;;;;;;9.36;100.00;95942.91;5089241;28;20048;-73
2023/05/12 04:29:47;;;;;;;16.63;10.88;;;;;;;9.34;100.00;95953.28;5089686;28;20051;-72
2023/05/12 04:32:13;;;;;;;15.63;10.15;;;;;;;9.37;100.00;95953.44;5088045;28;20036;-73
2023/05/12 04:34:41;;;;;;;17.27;9.98;;;;;;;9.36;100.00;95951.84;5087859;28;20044;-72
2023/05/12 04:37:08;;;;;;;14.40;9.90;;;;;;;9.34;100.00;95959.53;5087577;27;20067;-72
2023/05/12 04:39:34;;;;;;;17.08;10.27;;;;;;;9.27;100.00;95947.53;5089561;28;20109;-72
2023/05/12 04:42:01;;;;;;;21.08;11.70;;;;;;;9.29;100.00;95959.69;5088514;28;20051;-72
2023/05/12 04:44:27;;;;;;;20.83;12.70;;;;;;;9.24;100.00;95959.84;5088902;28;20391;-73
2023/05/12 04:46:55;;;;;;;20.00;12.52;;;;;;;9.27;100.00;95961.13;5089231;28;20046;-73
2023/05/12 04:49:21;;;;;;;18.45;11.23;;;;;;;9.33;100.00;95963.34;5088992;28;20125;-72
2023/05/12 04:51:49;;;;;;;25.45;13.68;;;;;;;9.37;100.00;95961.59;5087132;28;20044;-72
2023/05/12 04:54:16;;;;;;;19.83;12.43;;;;;;;9.30;100.00;95963.22;5087597;27;20052;-72
2023/05/12 04:56:42;;;;;;;16.02;10.63;;;;;;;9.42;100.00;95966.09;5089245;28;20051;-72
2023/05/12 04:59:08;;;;;;;16.63;10.65;;;;;;;9.49;100.00;95963.66;5089162;28;20051;-73
2023/05/12 05:01:35;;;;;;;15.65;10.40;;;;;;;9.49;100.00;95966.38;5089208;28;20048;-73
2023/05/12 05:04:02;;;;;;;16.70;12.02;;;;;;;9.44;100.00;95972.00;5088639;28;20098;-72
2023/05/12 05:06:28;;;;;;;17.25;10.93;;;;;;;9.49;100.00;95969.09;5086824;27;20090;-72
2023/05/12 05:08:56;;;;;;;16.63;11.10;;;;;;;9.50;100.00;95970.72;5088696;27;20123;-73
2023/05/12 05:11:23;;;;;;;14.95;10.90;;;;;;;9.56;100.00;95966.72;5088637;28;20044;-72
2023/05/12 05:13:49;;;;;;;14.55;10.65;;;;;;;9.61;100.00;95969.28;5089275;28;20043;-72
2023/05/12 05:16:16;;;;;;;16.33;11.13;;;;;;;9.56;100.00;95969.44;5091674;28;20506;-73
2023/05/12 05:18:45;;;;;;;14.52;10.18;;;;;;;9.64;100.00;95975.97;5092127;28;20036;-73
2023/05/12 05:21:11;;;;;;;15.02;10.32;;;;;;;9.32;100.00;95967.19;5091435;28;20040;-73
2023/05/12 05:23:38;;;;;;;14.75;9.68;;;;;;;9.50;100.00;95973.44;5093504;28;20497;-72
2023/05/12 05:26:06;;;;;;;14.00;10.18;;;;;;;9.58;100.00;95975.34;5092706;27;20543;-73
2023/05/12 05:28:32;;;;;;;16.25;11.23;;;;;;;9.48;100.00;95975.66;5086133;28;20040;-72
2023/05/12 05:30:59;;;;;;;15.27;10.50;;;;;;;9.40;100.00;95973.78;5093539;28;20519;-73
2023/05/12 05:33:25;;;;;;;20.50;11.93;;;;;;;9.31;100.00;95976.47;5092443;27;20097;-72
2023/05/12 05:35:52;;;;;;;14.18;9.77;;;;;;;9.42;100.00;95982.38;5093557;27;20519;-73
2023/05/12 05:38:18;;;;;;;15.38;10.45;;;;;;;9.47;100.00;95982.22;5095542;28;20055;-74
2023/05/12 05:40:45;;;;;;;15.95;10.27;;;;;;;9.46;100.00;95982.56;5098449;28;20046;-73
2023/05/12 05:43:12;;;;;;;15.45;10.80;;;;;;;9.54;100.00;95985.25;5101167;28;20051;-73
2023/05/12 05:45:39;;;;;;;19.73;11.75;;;;;;;9.43;100.00;95977.75;5096799;28;20051;-72
2023/05/12 05:48:06;;;;;;;13.45;9.85;;;;;;;9.40;100.00;95979.19;5097707;28;20047;-73
2023/05/12 05:50:32;;;;;;;16.35;11.80;;;;;;;9.40;100.00;95974.56;5077284;28;20047;-73
2023/05/12 05:52:59;;;;;;;13.48;9.27;;;;;;;9.51;100.00;95982.41;5090936;27;20044;-73
2023/05/12 05:55:25;;;;;;;13.25;9.38;;;;;;;9.63;100.00;95982.53;5096132;28;20123;-73
2023/05/12 05:57:52;;;;;;;15.35;10.45;;;;;;;9.68;100.00;95985.91;5093511;28;20082;-73
2023/05/12 06:00:20;;;;;;;10.75;8.35;;;;;;;9.78;100.00;95981.25;5096521;28;20044;-72
2023/05/12 06:02:46;;;;;;;13.32;8.63;;;;;;;9.80;100.00;95989.88;5092761;28;20040;-72
2023/05/12 06:05:13;;;;;;;12.80;8.85;;;;;;;9.87;100.00;95985.56;5091016;28;20048;-72
2023/05/12 06:07:39;;;;;;;15.65;9.50;;;;;;;9.81;100.00;95986.84;5097720;28;20086;-74
2023/05/12 06:10:07;;;;;;;17.75;10.73;;;;;;;9.80;100.00;95992.59;5091636;28;20131;-74
2023/05/12 06:12:34;;;;;;;15.68;9.75;;;;;;;9.56;100.00;95993.13;5096506;28;20047;-74
2023/05/12 06:15:00;;;;;;;13.02;8.95;;;;;;;9.63;100.00;95994.22;5094648;28;20052;-72
2023/05/12 06:17:28;;;;;;;12.23;8.77;;;;;;;9.77;100.00;95993.25;5096219;28;20672;-72
2023/05/12 06:19:55;;;;;;;14.38;8.02;;;;;;;9.88;100.00;95997.25;5097679;28;20063;-72
2023/05/12 06:22:21;;;;;;;13.10;8.10;;;;;;;9.74;100.00;96002.06;5090985;28;20048;-72
2023/05/12 06:24:48;;;;;;;10.93;7.80;;;;;;;9.85;100.00;96000.59;5097636;28;20055;-72
2023/05/12 06:27:14;;;;;;;12.02;9.02;;;;;;;9.88;100.00;95999.97;5097191;28;20040;-72
2023/05/12 06:29:41;;;;;;;9.80;7.40;;;;;;;10.01;100.00;96000.91;5098678;28;20040;-72
2023/05/12 06:32:08;;;;;;;11.13;7.88;;;;;;;10.09;100.00;96005.53;5093865;28;20052;-72
2023/05/12 06:34:35;;;;;;;11.35;7.95;;;;;;;10.15;100.00;96009.69;5091218;28;20529;-72
2023/05/12 06:37:02;;;;;;;11.38;7.70;;;;;;;10.15;100.00;96009.69;5090704;27;20040;-72
2023/05/12 06:39:28;;;;;;;12.90;8.10;;;;;;;10.17;100.00;96008.22;5093316;28;20127;-72
2023/05/12 06:41:55;;;;;;;10.88;7.53;;;;;;;10.24;100.00;96009.69;5090408;28;20056;-72
2023/05/12 06:44:21;;;;;;;15.57;9.68;;;;;;;10.24;100.00;96017.88;5091043;28;20055;-72
2023/05/12 06:46:48;;;;;;;13.88;9.50;;;;;;;10.19;100.00;96016.09;5084573;28;20052;-73
2023/05/12 06:49:14;;;;;;;14.23;9.52;;;;;;;10.25;100.00;96019.47;5087077;28;20051;-73
2023/05/12 06:51:43;;;;;;;13.45;9.05;;;;;;;10.29;100.00;96014.97;5085240;28;20051;-73
2023/05/12 06:54:09;;;;;;;13.88;8.70;;;;;;;10.34;100.00;96012.06;5080975;28;20048;-72
2023/05/12 06:56:35;;;;;;;14.77;9.98;;;;;;;10.41;100.00;96013.16;5084717;28;20427;-73
2023/05/12 06:59:03;;;;;;;18.25;10.88;;;;;;;10.43;100.00;96015.56;5082644;28;20041;-73
2023/05/12 07:01:30;;;;;;;17.52;10.25;;;;;;;10.43;100.00;96015.56;5086148;28;20123;-73
2023/05/12 07:03:57;;;;;;;15.38;9.95;;;;;;;10.40;100.00;96013.50;5083075;28;20416;-72
2023/05/12 07:06:24;;;;;;;17.90;10.07;;;;;;;10.50;100.00;96015.88;5084035;28;20051;-72
2023/05/12 07:08:51;;;;;;;16.15;10.18;;;;;;;10.43;100.00;96013.63;5082794;28;20044;-72
2023/05/12 07:11:18;;;;;;;15.82;9.57;;;;;;;10.53;100.00;96019.84;5081904;28;20301;-73
2023/05/12 07:13:45;;;;;;;16.25;9.13;;;;;;;10.47;100.00;96021.94;5082644;28;20127;-73
2023/05/12 07:16:12;;;;;;;16.05;9.70;;;;;;;10.38;100.00;96024.69;5083693;28;20040;-72
2023/05/12 07:18:38;;;;;;;19.17;10.48;;;;;;;10.44;100.00;96022.63;5081362;28;20045;-72
2023/05/12 07:21:05;;;;;;;20.98;10.60;;;;;;;10.27;100.00;96015.28;5079609;28;20500;-72
2023/05/12 07:23:32;;;;;;;16.50;8.90;;;;;;;10.42;100.00;96019.41;5083602;28;20078;-72
2023/05/12 07:26:01;;;;;;;16.95;8.75;;;;;;;10.48;100.00;96018.09;5086718;28;20048;-73
2023/05/12 07:28:27;;;;;;;20.65;10.70;;;;;;;10.45;100.00;96024.22;5089935;28;20054;-72
2023/05/12 07:30:54;;;;;;;18.48;10.25;;;;;;;10.54;100.00;96022.25;5090241;28;20040;-72
2023/05/12 07:33:20;;;;;;;18.17;9.43;;;;;;;10.67;100.00;96015.78;5090040;28;20044;-72
2023/05/12 07:35:47;;;;;;;20.15;10.85;;;;;;;10.78;100.00;96027.13;5090758;28;20040;-72
2023/05/12 07:38:14;;;;;;;21.15;10.85;;;;;;;10.78;100.00;96021.69;5091093;28;20052;-72
2023/05/12 07:40:40;;;;;;;19.00;9.98;;;;;;;10.82;100.00;96010.94;5091655;28;20044;-72
2023/05/12 07:43:08;;;;;;;19.70;10.80;;;;;;;10.86;100.00;96022.78;5088406;27;20491;-72
2023/05/12 07:45:35;;;;;;;21.65;11.05;;;;;;;10.90;100.00;96015.53;5090711;27;20051;-72
2023/05/12 07:48:02;;;;;;;28.23;10.60;;;;;;;10.85;100.00;96023.88;5089469;27;20040;-73
2023/05/12 07:50:29;;;;;;;19.52;9.15;;;;;;;11.03;100.00;96021.88;5092585;28;20081;-72
2023/05/12 07:52:55;;;;;;;18.90;9.38;;;;;;;10.92;100.00;96018.75;5088789;28;20056;-72
2023/05/12 07:55:22;;;;;;;29.63;11.40;;;;;;;10.86;100.00;96026.31;5089745;28;20074;-71
2023/05/12 07:57:50;;;;;;;27.67;10.85;;;;;;;10.84;100.00;96025.81;5086267;28;20048;-71
2023/05/12 08:00:18;;;;;;;17.95;9.98;;;;;;;10.88;100.00;96026.75;5088896;28;20051;-72
2023/05/12 08:02:45;;;;;;;22.92;11.95;;;;;;;10.80;100.00;96018.63;5086820;28;20051;-72
2023/05/12 08:05:12;;;;;;;20.02;10.02;;;;;;;10.93;100.00;96023.06;5082156;28;20035;-72
2023/05/12 08:07:42;;;;;;;19.85;10.10;;;;;;;11.01;100.00;96024.91;5084738;28;20052;-71
2023/05/12 08:10:10;;;;;;;19.02;9.73;;;;;;;11.04;100.00;96020.75;5081318;28;20118;-72
2023/05/12 08:12:36;;;;;;;20.45;10.38;;;;;;;11.02;100.00;96023.81;5082224;28;20041;-71
2023/05/12 08:15:03;;;;;;;17.40;9.93;;;;;;;11.08;100.00;96030.69;5084041;28;20549;-71
2023/05/12 08:17:31;;;;;;;22.50;11.07;;;;;;;11.12;100.00;96025.34;5083436;28;20048;-72
2023/05/12 08:19:57;;;;;;;21.60;10.75;;;;;;;11.10;100.00;96022.97;5082118;28;20060;-72
2023/05/12 08:22:24;;;;;;;20.25;10.27;;;;;;;11.16;100.00;96021.63;5078431;28;20048;-72
2023/05/12 08:24:51;;;;;;;28.23;11.38;;;;;;;11.23;100.00;96021.94;5079875;28;20392;-72
2023/05/12 08:27:17;;;;;;;21.23;10.73;;;;;;;11.23;100.00;96015.69;5080897;28;20041;-72
2023/05/12 08:29:44;;;;;;;22.23;10.90;;;;;;;11.17;100.00;96022.44;5084759;28;20036;-72
2023/05/12 08:32:11;;;;;;;22.40;10.35;;;;;;;11.17;100.00;96025.16;5083992;28;20068;-73
2023/05/12 08:34:38;;;;;;;20.50;9.35;;;;;;;11.34;100.00;96021.56;5081810;28;20040;-72
2023/05/12 08:37:06;;;;;;;27.27;13.30;;;;;;;11.41;100.00;96021.81;5080633;28;20558;-72
2023/05/12 08:39:32;;;;;;;22.95;10.98;;;;;;;11.54;100.00;96026.22;5086534;28;20040;-72
2023/05/12 08:42:09;;;;;;;19.00;10.70;;;;;;;11.45;100.00;96022.75;5081327;28;20393;-72
2023/05/12 08:44:37;;;;;;;18.90;10.15;;;;;;;11.80;100.00;96023.31;5080760;28;20032;-73
2023/05/12 08:47:05;;;;;;;19.42;10.70;;;;;;;11.87;100.00;96022.78;5075320;28;20051;-72
2023/05/12 08:49:32;;;;;;;13.30;8.23;;;;;;;12.04;100.00;96022.63;5089980;28;20040;-73
2023/05/12 08:52:03;;;;;;;14.88;7.65;;;;;;;11.99;100.00;96025.56;5086108;28;20047;-73
2023/05/12 08:54:30;;;;;;;17.88;8.70;;;;;;;11.94;100.00;96023.03;5086519;28;20067;-72
2023/05/12 08:56:57;;;;;;;11.77;7.65;;;;;;;11.83;100.00;96021.84;5074630;28;20458;-73
2023/05/12 08:59:24;;;;;;;14.57;8.10;;;;;;;11.98;100.00;96019.31;5089774;28;20036;-73
2023/05/12 09:01:51;;;;;;;16.75;8.05;;;;;;;11.98;100.00;96023.97;5089857;28;20036;-73
2023/05/12 09:04:18;;;;;;;11.48;7.63;;;;;;;12.08;98.79;96023.56;5088128;28;20059;-73
2023/05/12 09:06:45;;;;;;;9.35;6.63;;;;;;;12.16;99.28;96030.88;5080807;27;20051;-74
2023/05/12 09:09:14;;;;;;;13.32;8.13;;;;;;;12.07;99.12;96024.69;5089533;28;20040;-73
2023/05/12 09:11:42;;;;;;;12.32;7.78;;;;;;;12.03;98.73;96031.94;5088682;28;20050;-75
2023/05/12 09:14:12;;;;;;;11.07;6.85;;;;;;;11.96;97.51;96032.50;5088298;27;20539;-75
2023/05/12 09:16:43;;;;;;;10.27;6.35;;;;;;;12.12;96.48;96029.16;5089647;28;20510;-72
2023/05/12 09:19:09;;;;;;;11.35;6.85;;;;;;;12.16;97.16;96030.88;5088668;28;20139;-73
2023/05/12 09:21:36;;;;;;;12.40;6.38;;;;;;;12.12;96.85;96027.22;5089458;28;20040;-73
2023/05/12 09:24:05;;;;;;;9.55;6.18;;;;;;;12.32;95.87;96027.50;5087940;27;20489;-73
2023/05/12 09:26:47;;;;;;;11.38;7.03;;;;;;;12.24;97.38;96026.44;5088433;28;20048;-72
2023/05/12 09:29:13;;;;;;;10.23;6.85;;;;;;;12.26;96.88;96029.63;5086505;27;20047;-72
2023/05/12 09:31:52;;;;;;;11.15;7.15;;;;;;;12.20;96.97;96034.50;5087501;28;20499;-73
2023/05/12 09:34:19;;;;;;;10.52;6.93;;;;;;;12.17;96.93;96032.47;5078825;28;20049;-72
2023/05/12 09:36:55;;;;;;;12.50;7.20;;;;;;;12.15;97.01;96031.97;5066220;28;20511;-73
2023/05/12 09:39:21;;;;;;;13.07;7.15;;;;;;;12.14;96.88;96024.94;5080299;28;20052;-73
2023/05/12 09:41:50;;;;;;;11.18;7.18;;;;;;;12.10;97.65;96029.47;5070660;28;20542;-73
2023/05/12 09:44:17;;;;;;;7.65;5.45;;;;;;;12.17;96.61;96021.53;5086408;28;20515;-73
2023/05/12 09:46:44;;;;;;;9.80;5.85;;;;;;;12.19;96.71;96022.00;5081437;28;20052;-72
2023/05/12 09:49:10;;;;;;;7.60;5.15;;;;;;;12.32;96.92;96022.03;5085215;28;20415;-74
2023/05/12 09:51:37;;;;;;;7.53;5.38;;;;;;;12.29;97.08;96023.50;5085428;28;20403;-72
2023/05/12 09:54:04;;;;;;;9.93;6.25;;;;;;;12.31;96.13;96026.69;5085040;28;20044;-71
2023/05/12 09:56:32;;;;;;;8.65;5.50;;;;;;;12.36;95.09;96023.75;5087822;28;20067;-72
2023/05/12 09:59:04;;;;;;;8.32;5.43;;;;;;;12.29;92.55;96034.44;5090140;28;20040;-72
2023/05/12 10:01:31;;;;;;;8.25;4.53;;;;;;;12.36;91.28;96028.41;5091452;28;20525;-72
2023/05/12 10:03:58;;;;;;;8.30;4.80;;;;;;;12.35;92.77;96032.28;5090937;28;20071;-71
2023/05/12 10:06:27;;;;;;;6.07;4.30;;;;;;;12.41;89.68;96025.47;5093644;28;20039;-72
2023/05/12 10:09:05;;;;;;;7.93;5.07;;;;;;;12.44;91.89;96030.28;5091496;28;20452;-72
2023/05/12 10:11:32;;;;;;;8.10;4.90;;;;;;;12.51;92.86;96025.03;5091547;28;20498;-73
2023/05/12 10:14:00;;;;;;;5.93;3.72;;;;;;;12.53;93.92;96025.53;5094347;28;20048;-74
2023/05/12 10:16:28;;;;;;;7.07;4.18;;;;;;;12.43;95.12;96026.75;5092860;27;20040;-74
2023/05/12 10:18:55;;;;;;;8.20;4.15;;;;;;;12.42;92.82;96032.53;5092562;28;20043;-74
2023/05/12 10:21:22;;;;;;;6.38;3.78;;;;;;;12.32;90.32;96030.22;5092464;28;20737;-74
2023/05/12 10:23:49;;;;;;;6.20;4.20;;;;;;;12.47;92.28;96035.84;5092691;28;20048;-74
2023/05/12 10:26:17;;;;;;;7.00;5.05;;;;;;;12.51;93.16;96031.31;5092136;28;20044;-72
2023/05/12 10:28:44;;;;;;;6.85;4.10;;;;;;;12.68;90.73;96030.31;5091016;27;20087;-73
2023/05/12 10:31:14;;;;;;;5.80;4.20;;;;;;;12.70;88.79;96036.25;5092089;28;20048;-72
2023/05/12 10:33:40;;;;;;;5.22;3.75;;;;;;;12.71;87.73;96029.63;5092247;28;20043;-74
2023/05/12 10:36:16;;;;;;;6.45;4.00;;;;;;;12.56;85.90;96033.03;5091128;28;20051;-75
2023/05/12 10:38:43;;;;;;;5.65;4.30;;;;;;;12.69;86.72;96031.91;5092773;28;20044;-74
2023/05/12 10:41:09;;;;;;;5.97;4.50;;;;;;;12.76;88.14;96034.88;5090839;28;20047;-73
2023/05/12 10:43:41;;;;;;;9.20;5.40;;;;;;;12.73;89.50;96035.53;5090506;28;20056;-72
2023/05/12 10:46:10;;;;;;;8.05;5.03;;;;;;;12.72;88.50;96042.16;5092196;28;20076;-73
2023/05/12 10:48:52;;;;;;;6.63;4.47;;;;;;;12.84;89.07;96032.38;5091367;28;20050;-73
2023/05/12 10:51:20;;;;;;;8.55;5.97;;;;;;;12.73;91.92;96041.00;5092034;28;20503;-73
2023/05/12 10:53:51;;;;;;;7.30;5.10;;;;;;;12.79;90.10;96036.94;5088555;27;20059;-74
2023/05/12 10:56:22;;;;;;;10.02;6.35;;;;;;;12.70;90.80;96033.50;5090994;28;20047;-74
2023/05/12 10:59:07;;;;;;;8.85;5.32;;;;;;;12.83;90.70;96044.44;5091194;28;20052;-74
2023/05/12 11:01:34;;;;;;;9.68;6.55;;;;;;;12.56;90.74;96043.94;5094535;28;20495;-74
2023/05/12 11:04:11;;;;;;;9.63;7.78;;;;;;;12.46;92.16;96041.63;5091890;28;20044;-74
2023/05/12 11:06:38;;;;;;;11.60;7.60;;;;;;;12.27;95.71;96048.44;5090519;27;20067;-74
2023/05/12 11:09:06;;;;;;;10.50;7.22;;;;;;;12.20;95.49;96050.88;5090429;28;20048;-74
2023/05/12 11:11:33;;;;;;;9.90;6.97;;;;;;;11.92;97.28;96050.66;5091679;28;20043;-74
2023/05/12 11:14:00;;;;;;;11.25;8.27;;;;;;;11.95;97.31;96054.63;5091315;28;20040;-74
2023/05/12 11:16:26;;;;;;;12.20;7.90;;;;;;;12.05;97.03;96056.97;5091190;28;20040;-74
2023/05/12 11:19:01;;;;;;;11.73;7.68;;;;;;;11.95;98.18;96057.38;5091578;27;20036;-74
2023/05/12 11:21:30;;;;;;;9.65;7.20;;;;;;;11.92;97.40;96055.31;5090581;28;20036;-74